createdAt,value
2023-11-23T00:01:36.577Z,81.71
2023-11-23T00:04:05.350Z,81.99
2023-11-23T00:06:33.133Z,81.21
2023-11-23T00:09:00.891Z,81.48
2023-11-23T00:11:28.681Z,81.67
2023-11-23T00:13:57.113Z,81.77
2023-11-23T00:16:24.944Z,82.31
2023-11-23T00:18:52.800Z,82.37
2023-11-23T00:21:20.551Z,81.39
2023-11-23T00:23:48.357Z,80.88
2023-11-23T00:26:16.193Z,81.60
2023-11-23T00:28:43.904Z,81.73
2023-11-23T00:31:11.734Z,81.13
2023-11-23T00:33:39.684Z,80.92
2023-11-23T00:36:08.129Z,80.76
2023-11-23T00:38:35.942Z,81.56
2023-11-23T00:41:03.733Z,81.58
2023-11-23T00:43:31.587Z,81.63
2023-11-23T00:45:59.349Z,81.31
2023-11-23T00:48:28.991Z,82.17
2023-11-23T00:50:56.830Z,82.01
2023-11-23T00:53:24.596Z,82.06
2023-11-23T00:55:52.295Z,81.50
2023-11-23T00:58:20.061Z,81.59
2023-11-23T01:00:48.578Z,80.27
2023-11-23T01:03:16.451Z,80.24
2023-11-23T01:05:45.304Z,82.05
2023-11-23T01:08:13.109Z,80.98
2023-11-23T01:10:40.862Z,81.15
2023-11-23T01:13:08.661Z,81.62
2023-11-23T01:15:36.357Z,82.22
2023-11-23T01:18:04.109Z,81.56
2023-11-23T01:20:31.852Z,80.76
2023-11-23T01:22:59.525Z,82.11
2023-11-23T01:25:27.288Z,81.50
2023-11-23T01:27:56.508Z,81.98
2023-11-23T01:30:24.263Z,81.79
2023-11-23T01:32:52.096Z,81.48
2023-11-23T01:35:22.085Z,81.63
2023-11-23T01:37:50.465Z,81.17
2023-11-23T01:40:18.564Z,82.13
2023-11-23T01:42:48.822Z,81.40
2023-11-23T01:45:16.859Z,80.58
2023-11-23T01:47:47.512Z,81.25
2023-11-23T01:50:17.242Z,81.81
2023-11-23T01:52:44.932Z,81.77
2023-11-23T01:55:14.557Z,82.17
2023-11-23T01:57:42.898Z,81.15
2023-11-23T02:00:11.029Z,80.78
2023-11-23T02:02:39.080Z,82.48
2023-11-23T02:05:06.976Z,83.00
2023-11-23T02:07:34.674Z,81.37
2023-11-23T02:10:02.669Z,82.29
2023-11-23T02:12:30.564Z,80.75
2023-11-23T02:15:01.596Z,80.40
2023-11-23T02:17:31.999Z,82.46
2023-11-23T02:20:00.576Z,80.61
2023-11-23T02:22:28.376Z,80.78
2023-11-23T02:24:56.186Z,80.01
2023-11-23T02:27:24.114Z,80.85
2023-11-23T02:29:51.774Z,81.02
2023-11-23T02:32:19.489Z,84.51
2023-11-23T02:34:47.248Z,82.77
2023-11-23T02:37:14.975Z,82.02
2023-11-23T02:39:44.874Z,82.16
2023-11-23T02:42:12.887Z,80.67
2023-11-23T02:44:40.732Z,81.37
2023-11-23T02:47:08.588Z,80.62
2023-11-23T02:49:36.382Z,83.04
2023-11-23T02:52:04.291Z,81.25
2023-11-23T02:54:32.467Z,81.11
2023-11-23T02:57:00.023Z,83.58
2023-11-23T02:59:30.050Z,81.50
2023-11-23T03:01:57.866Z,85.46
2023-11-23T03:04:25.711Z,79.94
2023-11-23T03:06:53.438Z,80.79
2023-11-23T03:09:21.303Z,81.14
2023-11-23T03:11:49.053Z,80.65
2023-11-23T03:14:17.068Z,82.51
2023-11-23T03:16:45.647Z,81.54
2023-11-23T03:19:13.432Z,81.11
2023-11-23T03:21:41.236Z,81.10
2023-11-23T03:24:09.358Z,79.48
2023-11-23T03:26:37.469Z,80.57
2023-11-23T03:29:05.185Z,79.76
2023-11-23T03:31:32.930Z,81.16
2023-11-23T03:34:00.583Z,79.72
2023-11-23T03:36:28.356Z,79.62
2023-11-23T03:38:56.144Z,79.55
2023-11-23T03:41:23.912Z,78.49
2023-11-23T03:43:51.683Z,82.67
2023-11-23T03:46:19.824Z,79.52
2023-11-23T03:48:47.577Z,80.02
2023-11-23T03:51:15.728Z,80.28
2023-11-23T03:53:44.148Z,81.24
2023-11-23T03:56:18.249Z,79.36
2023-11-23T03:58:46.151Z,79.46
2023-11-23T04:01:14.628Z,81.06
2023-11-23T04:03:45.972Z,79.59
2023-11-23T04:06:14.497Z,79.13
2023-11-23T04:08:42.338Z,78.89
2023-11-23T04:11:11.099Z,82.31
2023-11-23T04:13:38.847Z,80.02
2023-11-23T04:16:06.847Z,81.12
2023-11-23T04:18:34.560Z,80.12
2023-11-23T04:21:03.565Z,79.09
2023-11-23T04:23:31.503Z,79.75
2023-11-23T04:25:59.292Z,81.37
2023-11-23T04:28:27.363Z,80.29
2023-11-23T04:30:55.113Z,79.38
2023-11-23T04:33:25.671Z,80.30
2023-11-23T04:35:54.109Z,79.30
2023-11-23T04:38:21.818Z,80.52
2023-11-23T04:40:49.544Z,81.16
2023-11-23T04:43:17.920Z,80.83
2023-11-23T04:45:45.723Z,83.84
2023-11-23T04:48:13.603Z,80.67
2023-11-23T04:50:42.709Z,81.09
2023-11-23T04:53:10.522Z,80.88
2023-11-23T04:55:40.262Z,79.45
2023-11-23T04:58:08.600Z,79.09
2023-11-23T05:00:38.344Z,81.99
2023-11-23T05:03:06.144Z,82.66
2023-11-23T05:05:33.895Z,80.03
2023-11-23T05:08:01.561Z,81.02
2023-11-23T05:10:29.210Z,82.83
2023-11-23T05:12:56.905Z,84.59
2023-11-23T05:15:24.798Z,87.55
2023-11-23T05:17:52.610Z,83.93
2023-11-23T05:20:21.578Z,86.72
2023-11-23T05:22:49.305Z,87.82
2023-11-23T05:25:18.237Z,81.88
2023-11-23T05:27:46.452Z,83.89
2023-11-23T05:30:14.424Z,84.46
2023-11-23T05:32:42.218Z,83.84
2023-11-23T05:35:10.306Z,87.37
2023-11-23T05:37:38.059Z,88.09
2023-11-23T05:40:10.319Z,83.69
2023-11-23T05:42:38.225Z,82.28
2023-11-23T05:45:07.471Z,83.40
2023-11-23T05:47:35.486Z,84.01
2023-11-23T05:50:04.489Z,80.74
2023-11-23T05:52:32.245Z,80.38
2023-11-23T05:54:59.956Z,81.78
2023-11-23T05:57:28.505Z,80.63
2023-11-23T05:59:56.343Z,79.68
2023-11-23T06:02:24.155Z,83.07
2023-11-23T06:04:52.002Z,81.94
2023-11-23T06:07:19.824Z,81.15
2023-11-23T06:09:48.062Z,88.76
2023-11-23T06:12:15.595Z,82.43
2023-11-23T06:14:43.265Z,80.63
2023-11-23T06:17:15.987Z,89.26
2023-11-23T06:19:43.793Z,87.47
2023-11-23T06:22:12.613Z,81.71
2023-11-23T06:24:41.522Z,86.19
2023-11-23T06:27:11.592Z,79.43
2023-11-23T06:29:39.481Z,80.78
2023-11-23T06:32:07.771Z,92.24
2023-11-23T06:34:38.321Z,88.36
2023-11-23T06:37:07.798Z,83.85
2023-11-23T06:39:38.369Z,82.54
2023-11-23T06:42:06.190Z,85.26
2023-11-23T06:44:33.924Z,82.15
2023-11-23T06:47:01.966Z,82.13
2023-11-23T06:49:29.622Z,84.42
2023-11-23T06:51:57.317Z,80.31
2023-11-23T06:54:25.260Z,81.77
2023-11-23T06:56:53.015Z,80.93
2023-11-23T06:59:20.718Z,84.99
2023-11-23T07:01:48.619Z,82.90
2023-11-23T07:04:16.485Z,82.57
2023-11-23T07:06:44.220Z,83.84
2023-11-23T07:09:14.622Z,81.94
2023-11-23T07:11:42.501Z,82.22
2023-11-23T07:14:10.570Z,81.46
2023-11-23T07:16:39.069Z,80.95
2023-11-23T07:19:06.743Z,81.37
2023-11-23T07:21:34.534Z,82.55
2023-11-23T07:24:02.359Z,81.12
2023-11-23T07:26:33.288Z,87.63
2023-11-23T07:29:01.046Z,85.08
2023-11-23T07:31:28.805Z,83.58
2023-11-23T07:33:56.693Z,87.54
2023-11-23T07:36:27.804Z,93.68
2023-11-23T07:38:55.757Z,100.00
2023-11-23T07:41:23.594Z,100.00
2023-11-23T07:43:52.801Z,100.00
2023-11-23T07:46:22.906Z,100.00
2023-11-23T07:48:54.085Z,100.00
2023-11-23T07:51:22.036Z,100.00
2023-11-23T07:53:49.893Z,100.00
2023-11-23T07:56:18.319Z,100.00
2023-11-23T07:58:47.549Z,100.00
2023-11-23T08:01:15.218Z,100.00
2023-11-23T08:03:43.156Z,100.00
2023-11-23T08:06:11.434Z,100.00
2023-11-23T08:08:40.338Z,100.00
2023-11-23T08:11:08.383Z,100.00
2023-11-23T08:13:36.309Z,100.00
2023-11-23T08:16:05.669Z,100.00
2023-11-23T08:18:40.439Z,100.00
2023-11-23T08:21:14.986Z,96.86
2023-11-23T08:23:43.600Z,94.53
2023-11-23T08:26:12.474Z,91.23
2023-11-23T08:28:40.362Z,93.16
2023-11-23T08:31:08.764Z,92.52
2023-11-23T08:33:36.517Z,94.71
2023-11-23T08:36:05.045Z,91.88
2023-11-23T08:38:32.843Z,91.34
2023-11-23T08:41:01.793Z,92.67
2023-11-23T08:43:29.651Z,89.30
2023-11-23T08:45:57.455Z,86.75
2023-11-23T08:48:25.286Z,84.70
2023-11-23T08:50:53.122Z,86.05
2023-11-23T08:53:20.825Z,87.17
2023-11-23T08:55:49.790Z,87.18
2023-11-23T08:58:17.504Z,88.84
2023-11-23T09:00:45.990Z,91.39
2023-11-23T09:03:15.072Z,87.59
2023-11-23T09:05:43.571Z,84.18
2023-11-23T09:08:11.375Z,89.12
2023-11-23T09:10:39.226Z,86.16
2023-11-23T09:13:07.003Z,81.27
2023-11-23T09:15:34.685Z,83.64
2023-11-23T09:18:02.409Z,81.21
2023-11-23T09:20:30.109Z,79.54
2023-11-23T09:22:57.840Z,78.48
2023-11-23T09:25:26.275Z,77.74
2023-11-23T09:27:55.258Z,79.55
2023-11-23T09:30:23.006Z,79.93
2023-11-23T09:32:51.109Z,76.69
2023-11-23T09:35:18.703Z,84.04
2023-11-23T09:37:46.974Z,79.15
2023-11-23T09:40:18.284Z,84.96
2023-11-23T09:42:48.789Z,84.05
2023-11-23T09:45:24.279Z,83.67
2023-11-23T09:47:54.109Z,80.38
2023-11-23T09:50:21.987Z,78.14
2023-11-23T09:52:50.411Z,77.55
2023-11-23T09:55:18.871Z,74.47
2023-11-23T09:57:49.502Z,77.74
2023-11-23T10:00:19.792Z,75.37
2023-11-23T10:02:57.113Z,74.85
2023-11-23T10:05:25.644Z,73.44
2023-11-23T10:07:55.457Z,77.52
2023-11-23T10:10:23.282Z,77.48
2023-11-23T10:12:51.089Z,74.50
2023-11-23T10:15:19.326Z,73.65
2023-11-23T10:17:48.768Z,74.54
2023-11-23T10:20:16.723Z,76.10
2023-11-23T10:22:49.118Z,72.00
2023-11-23T10:25:33.605Z,75.33
2023-11-23T10:28:02.322Z,73.41
2023-11-23T10:30:31.010Z,71.64
2023-11-23T10:33:00.550Z,72.18
2023-11-23T10:35:40.098Z,71.22
2023-11-23T10:38:09.183Z,71.08
2023-11-23T10:40:37.085Z,74.35
2023-11-23T10:43:06.461Z,72.05
2023-11-23T10:45:37.326Z,74.08
2023-11-23T10:48:05.768Z,73.18
2023-11-23T10:50:33.846Z,71.42
2023-11-23T10:53:03.488Z,74.88
2023-11-23T10:55:31.263Z,75.33
2023-11-23T10:58:09.464Z,74.92
2023-11-23T11:00:38.582Z,73.79
2023-11-23T11:03:10.393Z,76.44
2023-11-23T11:05:47.670Z,77.11
2023-11-23T11:08:21.592Z,78.21
2023-11-23T11:10:55.148Z,75.59
2023-11-23T11:13:25.092Z,78.90
2023-11-23T11:16:08.250Z,77.71
2023-11-23T11:18:36.960Z,76.70
2023-11-23T11:21:08.860Z,77.58
2023-11-23T11:23:45.704Z,77.30
2023-11-23T11:26:29.209Z,76.97
2023-11-23T11:29:00.054Z,77.42
2023-11-23T11:31:33.259Z,81.09
2023-11-23T11:34:02.614Z,80.01
2023-11-23T11:36:32.361Z,79.57
2023-11-23T11:39:01.671Z,79.89
2023-11-23T11:41:32.475Z,79.70
2023-11-23T11:44:00.392Z,76.08
2023-11-23T11:46:31.506Z,78.67
2023-11-23T11:49:00.047Z,76.75
2023-11-23T11:51:30.059Z,76.77
2023-11-23T11:54:00.763Z,78.48
2023-11-23T11:56:29.212Z,77.61
2023-11-23T11:58:57.741Z,79.31
2023-11-23T12:01:25.502Z,79.44
2023-11-23T12:03:53.277Z,81.17
2023-11-23T12:06:22.109Z,79.57
2023-11-23T12:08:51.087Z,82.77
2023-11-23T12:11:32.108Z,81.01
2023-11-23T12:14:01.128Z,81.78
2023-11-23T12:16:36.821Z,80.52
2023-11-23T12:19:22.378Z,77.19
2023-11-23T12:21:58.015Z,80.08
2023-11-23T12:24:31.725Z,80.60
2023-11-23T12:26:59.708Z,80.40
2023-11-23T12:29:32.400Z,79.15
2023-11-23T12:32:00.484Z,77.13
2023-11-23T12:34:28.492Z,78.24
2023-11-23T12:36:59.508Z,79.54
2023-11-23T12:39:29.640Z,77.02
2023-11-23T12:41:58.487Z,80.35
2023-11-23T12:44:26.200Z,79.13
2023-11-23T12:46:53.999Z,77.84
2023-11-23T12:49:22.052Z,78.55
2023-11-23T12:51:49.776Z,81.67
2023-11-23T12:54:17.574Z,79.22
2023-11-23T12:56:45.977Z,76.36
2023-11-23T12:59:13.761Z,80.78
2023-11-23T13:01:41.684Z,79.40
2023-11-23T13:04:10.764Z,77.06
2023-11-23T13:06:39.050Z,80.36
2023-11-23T13:09:13.237Z,80.82
2023-11-23T13:11:41.453Z,80.29
2023-11-23T13:14:09.561Z,79.39
2023-11-23T13:16:37.958Z,79.95
2023-11-23T13:19:17.000Z,79.66
2023-11-23T13:21:55.065Z,82.79
2023-11-23T13:24:22.928Z,80.08
2023-11-23T13:26:51.013Z,81.02
2023-11-23T13:29:19.821Z,83.50
2023-11-23T13:31:47.885Z,85.66
2023-11-23T13:34:16.302Z,84.50
2023-11-23T13:36:44.187Z,82.70
2023-11-23T13:39:15.898Z,84.55
2023-11-23T13:41:43.892Z,84.29
2023-11-23T13:44:12.280Z,83.07
2023-11-23T13:46:40.060Z,84.10
2023-11-23T13:49:08.997Z,83.36
2023-11-23T13:51:36.770Z,83.49
2023-11-23T13:54:08.119Z,86.24
2023-11-23T13:56:40.630Z,85.11
2023-11-23T13:59:10.388Z,87.28
2023-11-23T14:01:38.682Z,86.00
2023-11-23T14:04:07.438Z,86.50
2023-11-23T14:06:35.341Z,86.84
2023-11-23T14:09:05.273Z,83.91
2023-11-23T14:11:36.286Z,84.95
2023-11-23T14:14:06.804Z,86.32
2023-11-23T14:16:36.332Z,86.34
2023-11-23T14:19:07.266Z,81.99
2023-11-23T14:21:35.029Z,85.45
2023-11-23T14:24:02.793Z,82.45
2023-11-23T14:26:30.729Z,83.79
2023-11-23T14:28:58.428Z,84.95
2023-11-23T14:31:26.377Z,81.83
2023-11-23T14:33:56.426Z,83.57
2023-11-23T14:36:24.259Z,84.43
2023-11-23T14:38:54.285Z,85.82
2023-11-23T14:41:24.131Z,84.86
2023-11-23T14:43:52.216Z,84.46
2023-11-23T14:46:20.808Z,83.53
2023-11-23T14:48:48.624Z,86.19
2023-11-23T14:51:19.627Z,86.92
2023-11-23T14:56:17.505Z,82.54
2023-11-23T14:58:46.571Z,81.08
2023-11-23T15:01:14.479Z,86.30
2023-11-23T15:03:42.372Z,83.38
2023-11-23T15:06:10.180Z,82.89
2023-11-23T15:08:37.865Z,86.52
2023-11-23T15:11:05.663Z,84.68
2023-11-23T15:13:38.388Z,85.44
2023-11-23T15:16:07.196Z,85.22
2023-11-23T15:18:35.282Z,88.41
2023-11-23T15:21:03.127Z,84.94
2023-11-23T15:23:31.339Z,84.67
2023-11-23T15:25:58.948Z,84.18
2023-11-23T15:28:27.069Z,84.08
2023-11-23T15:30:54.899Z,85.49
2023-11-23T15:33:24.034Z,86.05
2023-11-23T15:35:52.290Z,85.90
2023-11-23T15:38:20.782Z,85.86
2023-11-23T15:40:50.249Z,85.38
2023-11-23T15:43:18.430Z,86.20
2023-11-23T15:45:46.602Z,84.29
2023-11-23T15:48:14.430Z,87.05
2023-11-23T15:50:42.241Z,83.31
2023-11-23T15:53:10.527Z,86.50
2023-11-23T15:55:39.662Z,85.95
2023-11-23T15:58:07.452Z,83.40
2023-11-23T16:00:35.295Z,85.60
2023-11-23T16:03:03.124Z,84.60
2023-11-23T16:05:30.874Z,83.17
2023-11-23T16:07:59.173Z,84.90
2023-11-23T16:10:27.718Z,86.78
2023-11-23T16:12:55.521Z,89.00
2023-11-23T16:15:23.493Z,83.69
2023-11-23T16:17:52.102Z,86.83
2023-11-23T16:20:20.452Z,85.32
2023-11-23T16:22:48.663Z,87.42
2023-11-23T16:25:17.261Z,86.47
2023-11-23T16:27:46.168Z,86.40
2023-11-23T16:30:15.400Z,88.75
2023-11-23T16:32:43.729Z,86.19
2023-11-23T16:35:14.576Z,82.75
2023-11-23T16:37:42.605Z,86.96
2023-11-23T16:40:13.492Z,85.55
2023-11-23T16:42:42.704Z,87.83
2023-11-23T16:45:11.855Z,86.43
2023-11-23T16:47:45.696Z,88.06
2023-11-23T16:50:14.254Z,84.74
2023-11-23T16:52:41.959Z,87.26
2023-11-23T16:55:10.403Z,86.82
2023-11-23T16:57:40.572Z,83.25
2023-11-23T17:00:13.216Z,86.07
2023-11-23T17:02:44.696Z,84.89
2023-11-23T17:05:15.117Z,82.54
2023-11-23T17:07:43.215Z,83.55
2023-11-23T17:10:10.819Z,85.90
2023-11-23T17:12:38.761Z,84.76
2023-11-23T17:15:08.577Z,85.83
2023-11-23T17:17:36.394Z,87.33
2023-11-23T17:20:04.464Z,87.55
2023-11-23T17:22:35.508Z,88.05
2023-11-23T17:25:03.797Z,88.08
2023-11-23T17:27:31.696Z,89.06
2023-11-23T17:30:00.324Z,86.04
2023-11-23T17:32:28.108Z,87.47
2023-11-23T17:34:55.911Z,89.17
2023-11-23T17:37:23.620Z,84.89
2023-11-23T17:39:51.314Z,87.64
2023-11-23T17:42:19.161Z,82.77
2023-11-23T17:44:46.962Z,84.66
2023-11-23T17:47:14.924Z,81.23
2023-11-23T17:49:44.112Z,81.50
2023-11-23T17:52:12.093Z,80.48
2023-11-23T17:54:39.820Z,85.37
2023-11-23T17:57:07.653Z,82.56
2023-11-23T17:59:46.842Z,84.66
2023-11-23T18:02:19.534Z,84.24
2023-11-23T18:04:53.152Z,83.35
2023-11-23T18:07:21.134Z,85.33
2023-11-23T18:09:50.612Z,83.18
2023-11-23T18:12:18.557Z,86.58
2023-11-23T18:14:46.330Z,85.85
2023-11-23T18:17:14.148Z,83.88
2023-11-23T18:19:42.392Z,82.44
2023-11-23T18:22:10.232Z,84.37
2023-11-23T18:24:38.066Z,82.11
2023-11-23T18:27:07.784Z,81.08
2023-11-23T18:29:37.462Z,84.25
2023-11-23T18:32:05.427Z,81.60
2023-11-23T18:34:35.102Z,86.15
2023-11-23T18:37:03.169Z,81.54
2023-11-23T18:39:30.808Z,88.27
2023-11-23T18:41:59.586Z,83.89
2023-11-23T18:44:27.383Z,85.17
2023-11-23T18:46:55.983Z,86.63
2023-11-23T18:49:29.261Z,84.54
2023-11-23T18:51:58.480Z,79.75
2023-11-23T18:54:26.298Z,78.69
2023-11-23T18:56:54.185Z,79.21
2023-11-23T18:59:22.663Z,80.39
2023-11-23T19:01:50.689Z,81.31
2023-11-23T19:04:19.570Z,82.65
2023-11-23T19:06:51.605Z,83.37
2023-11-23T19:09:23.095Z,82.97
2023-11-23T19:11:50.872Z,83.27
2023-11-23T19:14:18.595Z,83.95
2023-11-23T19:16:46.298Z,82.77
2023-11-23T19:19:14.160Z,82.22
2023-11-23T19:21:42.041Z,82.63
2023-11-23T19:24:10.527Z,82.61
2023-11-23T19:26:38.624Z,81.05
2023-11-23T19:29:06.442Z,80.38
2023-11-23T19:31:35.777Z,81.35
2023-11-23T19:34:04.767Z,82.70
2023-11-23T19:36:32.879Z,82.28
2023-11-23T19:39:00.975Z,81.55
2023-11-23T19:41:28.962Z,81.76
2023-11-23T19:43:56.839Z,82.27
2023-11-23T19:46:24.921Z,83.28
2023-11-23T19:48:52.997Z,82.96
2023-11-23T19:51:25.434Z,82.95
2023-11-23T19:53:56.583Z,82.70
2023-11-23T19:56:26.146Z,81.50
2023-11-23T19:58:54.294Z,81.37
2023-11-23T20:01:22.003Z,81.22
2023-11-23T20:03:49.889Z,80.57
2023-11-23T20:06:18.353Z,81.61
2023-11-23T20:08:46.272Z,80.83
2023-11-23T20:11:15.029Z,81.25
2023-11-23T20:13:43.154Z,80.83
2023-11-23T20:16:21.620Z,81.26
2023-11-23T20:18:56.154Z,80.94
2023-11-23T20:21:23.928Z,81.35
2023-11-23T20:23:51.944Z,81.82
2023-11-23T20:26:19.802Z,81.28
2023-11-23T20:28:48.273Z,83.05
2023-11-23T20:31:16.088Z,80.88
2023-11-23T20:33:43.965Z,80.83
2023-11-23T20:36:11.770Z,79.74
2023-11-23T20:38:39.544Z,79.61
2023-11-23T20:41:07.951Z,80.31
2023-11-23T20:43:35.799Z,79.86
2023-11-23T20:46:05.144Z,79.68
2023-11-23T20:48:32.959Z,80.43
2023-11-23T20:51:02.856Z,80.75
2023-11-23T20:53:30.726Z,81.97
2023-11-23T20:55:58.868Z,81.37
2023-11-23T20:58:26.814Z,81.35
2023-11-23T21:00:55.053Z,80.03
2023-11-23T21:03:24.195Z,82.05
2023-11-23T21:05:52.687Z,81.59
2023-11-23T21:08:20.817Z,80.66
2023-11-23T21:10:49.557Z,79.88
2023-11-23T21:13:17.617Z,80.75
2023-11-23T21:15:45.370Z,80.30
2023-11-23T21:18:13.455Z,80.55
2023-11-23T21:20:41.691Z,79.26
2023-11-23T21:23:09.389Z,80.32
2023-11-23T21:25:38.668Z,79.98
2023-11-23T21:28:06.429Z,80.39
2023-11-23T21:30:34.185Z,80.53
2023-11-23T21:33:02.088Z,81.27
2023-11-23T21:35:33.747Z,81.56
2023-11-23T21:38:01.728Z,82.31
2023-11-23T21:40:29.953Z,80.16
2023-11-23T21:42:57.838Z,79.41
2023-11-23T21:45:25.682Z,79.33
2023-11-23T21:47:53.556Z,78.38
2023-11-23T21:50:21.722Z,79.12
2023-11-23T21:52:50.666Z,78.82
2023-11-23T21:55:19.639Z,78.52
2023-11-23T21:57:47.353Z,79.79
2023-11-23T22:00:15.590Z,80.19
2023-11-23T22:02:45.412Z,80.74
2023-11-23T22:05:13.286Z,82.31
2023-11-23T22:07:41.174Z,82.72
2023-11-23T22:10:08.991Z,82.24
2023-11-23T22:12:37.142Z,82.82
2023-11-23T22:15:07.875Z,82.52
2023-11-23T22:17:36.547Z,82.42
2023-11-23T22:20:04.785Z,82.31
2023-11-23T22:22:32.727Z,81.14
2023-11-23T22:25:00.583Z,81.46
2023-11-23T22:27:29.442Z,82.04
2023-11-23T22:29:57.534Z,81.44
2023-11-23T22:32:27.644Z,80.46
2023-11-23T22:34:55.761Z,81.12
2023-11-23T22:37:23.590Z,79.87
2023-11-23T22:39:51.910Z,80.68
2023-11-23T22:42:19.896Z,80.34
2023-11-23T22:44:47.968Z,79.93
2023-11-23T22:47:15.661Z,80.65
2023-11-23T22:49:43.321Z,79.24
2023-11-23T22:52:11.056Z,80.69
2023-11-23T22:54:39.307Z,79.18
2023-11-23T22:57:07.052Z,77.83
2023-11-23T22:59:35.063Z,80.06
2023-11-23T23:02:03.787Z,78.57
2023-11-23T23:04:32.826Z,81.09
2023-11-23T23:07:00.706Z,81.10
2023-11-23T23:09:28.898Z,81.06
2023-11-23T23:11:57.660Z,80.79
2023-11-23T23:14:29.736Z,81.71
2023-11-23T23:16:57.932Z,82.10
2023-11-23T23:19:25.795Z,80.41
2023-11-23T23:21:53.578Z,80.40
2023-11-23T23:24:21.452Z,80.72
2023-11-23T23:26:49.628Z,79.53
2023-11-23T23:29:18.366Z,80.07
2023-11-23T23:31:46.089Z,81.30
2023-11-23T23:34:14.179Z,79.28
2023-11-23T23:36:42.622Z,82.15
2023-11-23T23:39:10.428Z,83.05
2023-11-23T23:41:38.902Z,83.30
2023-11-23T23:44:06.906Z,82.17
2023-11-23T23:46:34.991Z,80.42
2023-11-23T23:49:02.893Z,78.84
2023-11-23T23:51:33.356Z,85.50
2023-11-23T23:54:01.295Z,84.16
2023-11-23T23:56:29.029Z,83.38
2023-11-23T23:58:56.961Z,86.79
